KCVOKORS

Guest
Details From KCVO - CORVALLIS MUNI
To KORS - Orcas Island
Flight Number -
Tags generated
Created
Modified
Stats Distance 255 nm / 472 km
Max Altitude 21,300 ft / 6,492 m
Waypoints 4
Social Downloads 1
Likes 0
Share

Download

Looking for another format? Having issues loading an existing format? Contact us
Advertisement - Login to hide

Notes

Basic altitude profile: - Ascent Rate: 2500ft/min - Ascent Speed: 250kts - Cruise Altitude: 35000ft - Cruise Speed: 420kts - Descent Rate: 1500ft/min - Descent Speed: 250kts Options: - Use NATs: yes - Use PACOTS: yes - Use low airways: no - Use high airways: yes

Route

KCVO UBG J126 OLM KORS

ID Type Via Altitude (ft/m) Position (lat/lon) Dist (leg/tot) Name
O KCVO APT - 0 / 0 44.49768 / -123.28855 - / 0 nm CORVALLIS MUNI
UBG VOR - 17,900 / 5,456 45.35322 / -122.97817 53 / 53 nm NEWBERG VOR-DME
OLM VOR J126 (AWY-HI) 21,300 / 6,492 46.97164 / -122.90183 97 / 150 nm OLYMPIA VORTAC
O KORS APT - 0 / 0 48.70832 / -122.91061 104 / 254 nm Orcas Island

Altitude Profile

Advertisement - Login to hide

Weather


0- 5 10 15 20 25 30 35+ Temperature / °C

Clouds and Precipitation
Forecast for 2020-11-27 06:00 UTC. Updated 4 hours ago

Ground ~20,000 ft ~40,000 ft Winds

KCVO

Details ICAO KCVO (CVO)
Name Corvallis Muni
Region United States
Timezone America/Los_Angeles (UTC-8.0)
Stats Elevation 249 ft / 76 m (AMSL)
Location 44.497700° -123.289000°
Runways 2
Magnetic Variation 14.782° E

METAR

KCVO 270701Z AUTO 00000KT 1/2SM FG VV001 01/00 A3043 RMK AO2 FZRANO RVRNO

Decode

TAF

Not found

Departure Runways

ID Width Length Bearing (true/mag) Surface Threshold Overrun Markings Lighting
09 75 ft / 23 m 3,538 ft / 1,079 m 112.05° / 97.27° ASPHALT 0 ft / 0 m 1,417 ft / 432 m VISUAL EDGE THRESHOLD
17 150 ft / 46 m 5,905 ft / 1,800 m 186.94° / 172.16° ASPHALT 0 ft / 0 m 0 ft / 0 m PREC-APP EDGE THRESHOLD MALSR
27 75 ft / 23 m 3,538 ft / 1,079 m 292.06° / 277.28° ASPHALT 200 ft / 61 m 0 ft / 0 m VISUAL EDGE THRESHOLD
35 150 ft / 46 m 5,905 ft / 1,800 m 6.94° / 352.16° ASPHALT 0 ft / 0 m 197 ft / 60 m APP EDGE THRESHOLD REIL-OMNI

KORS

Details ICAO KORS (ESD)
Name Orcas Island
Region United States
Timezone America/Los_Angeles (UTC-8.0)
Stats Elevation 34 ft / 10 m (AMSL)
Location 48.708300° -122.911000°
Runways 1
Magnetic Variation 15.652° E

METAR

KORS 270655Z AUTO 16007G13KT 10SM OVC014 09/07 A3032 RMK AO2

Decode

TAF

Not found

Destination Runways

ID Width Length Bearing (true/mag) Surface Threshold Overrun Markings Lighting
16 59 ft / 18 m 2,903 ft / 885 m 180.23° / 164.58° ASPHALT 0 ft / 0 m 233 ft / 71 m APP EDGE THRESHOLD REIL-UNI
34 59 ft / 18 m 2,903 ft / 885 m 0.23° / 344.58° ASPHALT 0 ft / 0 m 249 ft / 76 m APP EDGE THRESHOLD REIL-UNI